sensor_id;sensor_type;location;lat;lon;timestamp;temperature;humidity
5962;DHT22;3007;50.770;0.250;2023-04-24T00:00:40;8.00;99.90
5962;DHT22;3007;50.770;0.250;2023-04-24T00:03:07;8.00;99.90
5962;DHT22;3007;50.770;0.250;2023-04-24T00:05:36;8.00;99.90
5962;DHT22;3007;50.770;0.250;2023-04-24T00:08:02;8.00;99.90
5962;DHT22;3007;50.770;0.250;2023-04-24T00:10:30;8.00;99.90
5962;DHT22;3007;50.770;0.250;2023-04-24T00:12:56;8.00;99.90
5962;DHT22;3007;50.770;0.250;2023-04-24T00:15:23;8.00;99.90
5962;DHT22;3007;50.770;0.250;2023-04-24T00:17:50;8.00;99.90
5962;DHT22;3007;50.770;0.250;2023-04-24T00:20:18;7.90;99.90
5962;DHT22;3007;50.770;0.250;2023-04-24T00:22:47;7.90;99.90
5962;DHT22;3007;50.770;0.250;2023-04-24T00:25:13;7.90;99.90
5962;DHT22;3007;50.770;0.250;2023-04-24T00:27:40;7.90;99.90
5962;DHT22;3007;50.770;0.250;2023-04-24T00:30:08;7.80;99.90
5962;DHT22;3007;50.770;0.250;2023-04-24T00:32:35;7.80;99.90
5962;DHT22;3007;50.770;0.250;2023-04-24T00:35:02;7.80;99.90
5962;DHT22;3007;50.770;0.250;2023-04-24T00:37:29;7.80;99.90
5962;DHT22;3007;50.770;0.250;2023-04-24T00:39:57;7.80;99.90
5962;DHT22;3007;50.770;0.250;2023-04-24T00:42:24;7.80;99.90
5962;DHT22;3007;50.770;0.250;2023-04-24T00:44:52;7.70;99.90
5962;DHT22;3007;50.770;0.250;2023-04-24T00:47:19;7.70;99.90
5962;DHT22;3007;50.770;0.250;2023-04-24T00:49:47;7.70;99.90
5962;DHT22;3007;50.770;0.250;2023-04-24T00:52:14;7.70;99.90
5962;DHT22;3007;50.770;0.250;2023-04-24T00:54:43;7.70;99.90
5962;DHT22;3007;50.770;0.250;2023-04-24T00:57:12;7.70;99.90
5962;DHT22;3007;50.770;0.250;2023-04-24T00:59:40;7.60;99.90
5962;DHT22;3007;50.770;0.250;2023-04-24T01:02:07;7.60;99.90
5962;DHT22;3007;50.770;0.250;2023-04-24T01:04:36;7.60;99.90
5962;DHT22;3007;50.770;0.250;2023-04-24T01:07:03;7.50;99.90
5962;DHT22;3007;50.770;0.250;2023-04-24T01:09:35;7.50;99.90
5962;DHT22;3007;50.770;0.250;2023-04-24T01:12:03;7.50;99.90
5962;DHT22;3007;50.770;0.250;2023-04-24T01:14:31;7.50;99.90
5962;DHT22;3007;50.770;0.250;2023-04-24T01:16:58;7.50;99.90
5962;DHT22;3007;50.770;0.250;2023-04-24T01:19:25;7.50;99.90
5962;DHT22;3007;50.770;0.250;2023-04-24T01:21:54;7.50;99.90
5962;DHT22;3007;50.770;0.250;2023-04-24T01:24:24;7.40;99.90
5962;DHT22;3007;50.770;0.250;2023-04-24T01:26:51;7.50;99.90
5962;DHT22;3007;50.770;0.250;2023-04-24T01:29:18;7.40;99.90
5962;DHT22;3007;50.770;0.250;2023-04-24T01:31:45;7.40;99.90
5962;DHT22;3007;50.770;0.250;2023-04-24T01:34:12;7.40;99.90
5962;DHT22;3007;50.770;0.250;2023-04-24T01:36:41;7.40;99.90
5962;DHT22;3007;50.770;0.250;2023-04-24T01:39:09;7.30;99.90
5962;DHT22;3007;50.770;0.250;2023-04-24T01:41:37;7.40;99.90
5962;DHT22;3007;50.770;0.250;2023-04-24T01:44:04;7.30;99.90
5962;DHT22;3007;50.770;0.250;2023-04-24T01:46:31;7.40;99.90
5962;DHT22;3007;50.770;0.250;2023-04-24T01:49:01;7.40;99.90
5962;DHT22;3007;50.770;0.250;2023-04-24T01:51:28;7.30;99.90
5962;DHT22;3007;50.770;0.250;2023-04-24T01:53:55;7.30;99.90
5962;DHT22;3007;50.770;0.250;2023-04-24T01:56:22;7.30;99.90
5962;DHT22;3007;50.770;0.250;2023-04-24T01:58:52;7.30;99.90
5962;DHT22;3007;50.770;0.250;2023-04-24T02:01:20;7.30;99.90
5962;DHT22;3007;50.770;0.250;2023-04-24T02:03:47;7.30;99.90
5962;DHT22;3007;50.770;0.250;2023-04-24T02:06:14;7.30;99.90
5962;DHT22;3007;50.770;0.250;2023-04-24T02:08:41;7.20;99.90
5962;DHT22;3007;50.770;0.250;2023-04-24T02:11:09;7.20;99.90
5962;DHT22;3007;50.770;0.250;2023-04-24T02:13:35;7.20;99.90
5962;DHT22;3007;50.770;0.250;2023-04-24T02:16:04;7.20;99.90
5962;DHT22;3007;50.770;0.250;2023-04-24T02:18:31;7.20;99.90
5962;DHT22;3007;50.770;0.250;2023-04-24T02:20:57;7.30;99.90
5962;DHT22;3007;50.770;0.250;2023-04-24T02:23:24;7.30;99.90
5962;DHT22;3007;50.770;0.250;2023-04-24T02:25:52;7.30;99.90
5962;DHT22;3007;50.770;0.250;2023-04-24T02:28:19;7.30;99.90
5962;DHT22;3007;50.770;0.250;2023-04-24T02:30:46;7.20;99.90
5962;DHT22;3007;50.770;0.250;2023-04-24T02:33:15;7.20;99.90
5962;DHT22;3007;50.770;0.250;2023-04-24T02:35:41;7.20;99.90
5962;DHT22;3007;50.770;0.250;2023-04-24T02:38:08;7.20;99.90
5962;DHT22;3007;50.770;0.250;2023-04-24T02:40:35;7.10;99.90
5962;DHT22;3007;50.770;0.250;2023-04-24T02:43:02;7.10;99.90
5962;DHT22;3007;50.770;0.250;2023-04-24T02:45:29;7.10;99.90
5962;DHT22;3007;50.770;0.250;2023-04-24T02:47:56;7.10;99.90
5962;DHT22;3007;50.770;0.250;2023-04-24T02:50:24;7.10;99.90
5962;DHT22;3007;50.770;0.250;2023-04-24T02:52:51;7.20;99.90
5962;DHT22;3007;50.770;0.250;2023-04-24T02:55:18;7.30;99.90
5962;DHT22;3007;50.770;0.250;2023-04-24T02:57:44;7.30;99.90
5962;DHT22;3007;50.770;0.250;2023-04-24T03:00:12;7.30;99.90
5962;DHT22;3007;50.770;0.250;2023-04-24T03:02:39;7.30;99.90
5962;DHT22;3007;50.770;0.250;2023-04-24T03:05:07;7.30;99.90
5962;DHT22;3007;50.770;0.250;2023-04-24T03:07:35;7.30;99.90
5962;DHT22;3007;50.770;0.250;2023-04-24T03:10:03;7.30;99.90
5962;DHT22;3007;50.770;0.250;2023-04-24T03:12:30;7.20;99.90
5962;DHT22;3007;50.770;0.250;2023-04-24T03:14:57;7.20;99.90
5962;DHT22;3007;50.770;0.250;2023-04-24T03:17:24;7.10;99.90
5962;DHT22;3007;50.770;0.250;2023-04-24T03:19:51;7.10;99.90
5962;DHT22;3007;50.770;0.250;2023-04-24T03:22:18;7.00;99.90
5962;DHT22;3007;50.770;0.250;2023-04-24T03:24:46;7.00;99.90
5962;DHT22;3007;50.770;0.250;2023-04-24T03:27:13;7.00;99.90
5962;DHT22;3007;50.770;0.250;2023-04-24T03:29:40;6.90;99.90
5962;DHT22;3007;50.770;0.250;2023-04-24T03:32:06;6.90;99.90
5962;DHT22;3007;50.770;0.250;2023-04-24T03:34:33;6.90;99.90
5962;DHT22;3007;50.770;0.250;2023-04-24T03:37:00;6.90;99.90
5962;DHT22;3007;50.770;0.250;2023-04-24T03:39:27;6.90;99.90
5962;DHT22;3007;50.770;0.250;2023-04-24T03:41:55;6.90;99.90
5962;DHT22;3007;50.770;0.250;2023-04-24T03:44:22;6.90;99.90
5962;DHT22;3007;50.770;0.250;2023-04-24T03:46:49;6.90;99.90
5962;DHT22;3007;50.770;0.250;2023-04-24T03:49:16;6.90;99.90
5962;DHT22;3007;50.770;0.250;2023-04-24T03:51:42;6.90;99.90
5962;DHT22;3007;50.770;0.250;2023-04-24T03:54:09;7.00;99.90
5962;DHT22;3007;50.770;0.250;2023-04-24T03:56:36;7.10;99.90
5962;DHT22;3007;50.770;0.250;2023-04-24T03:59:04;7.20;99.90
5962;DHT22;3007;50.770;0.250;2023-04-24T04:01:31;7.20;99.90
5962;DHT22;3007;50.770;0.250;2023-04-24T04:04:02;7.30;99.90
5962;DHT22;3007;50.770;0.250;2023-04-24T04:06:29;7.30;99.90
5962;DHT22;3007;50.770;0.250;2023-04-24T04:08:57;7.30;99.90
5962;DHT22;3007;50.770;0.250;2023-04-24T04:11:24;7.30;99.90
5962;DHT22;3007;50.770;0.250;2023-04-24T04:13:51;7.20;99.90
5962;DHT22;3007;50.770;0.250;2023-04-24T04:16:19;7.20;99.90
5962;DHT22;3007;50.770;0.250;2023-04-24T04:18:46;7.10;99.90
5962;DHT22;3007;50.770;0.250;2023-04-24T04:21:13;7.10;99.90
5962;DHT22;3007;50.770;0.250;2023-04-24T04:23:40;7.00;99.90
5962;DHT22;3007;50.770;0.250;2023-04-24T04:26:07;7.00;99.90
5962;DHT22;3007;50.770;0.250;2023-04-24T04:28:34;6.90;99.90
5962;DHT22;3007;50.770;0.250;2023-04-24T04:31:01;6.80;99.90
5962;DHT22;3007;50.770;0.250;2023-04-24T04:33:29;6.80;99.90
5962;DHT22;3007;50.770;0.250;2023-04-24T04:35:56;6.80;99.90
5962;DHT22;3007;50.770;0.250;2023-04-24T04:38:23;6.80;99.90
5962;DHT22;3007;50.770;0.250;2023-04-24T04:40:52;6.80;99.90
5962;DHT22;3007;50.770;0.250;2023-04-24T04:43:19;6.70;99.90
5962;DHT22;3007;50.770;0.250;2023-04-24T04:45:46;6.70;99.90
5962;DHT22;3007;50.770;0.250;2023-04-24T04:48:13;6.70;99.90
5962;DHT22;3007;50.770;0.250;2023-04-24T04:50:44;6.70;99.90
5962;DHT22;3007;50.770;0.250;2023-04-24T04:53:11;6.80;99.90
5962;DHT22;3007;50.770;0.250;2023-04-24T04:55:38;6.70;99.90
5962;DHT22;3007;50.770;0.250;2023-04-24T04:58:05;6.70;99.90
5962;DHT22;3007;50.770;0.250;2023-04-24T05:00:32;6.60;99.90
5962;DHT22;3007;50.770;0.250;2023-04-24T05:03:01;6.70;99.90
5962;DHT22;3007;50.770;0.250;2023-04-24T05:05:28;6.60;99.90
5962;DHT22;3007;50.770;0.250;2023-04-24T05:07:56;6.70;99.90
5962;DHT22;3007;50.770;0.250;2023-04-24T05:10:23;6.70;99.90
5962;DHT22;3007;50.770;0.250;2023-04-24T05:12:50;6.70;99.90
5962;DHT22;3007;50.770;0.250;2023-04-24T05:15:17;6.70;99.90
5962;DHT22;3007;50.770;0.250;2023-04-24T05:17:44;6.70;99.90
5962;DHT22;3007;50.770;0.250;2023-04-24T05:20:11;6.70;99.90
5962;DHT22;3007;50.770;0.250;2023-04-24T05:22:38;6.80;99.90
5962;DHT22;3007;50.770;0.250;2023-04-24T05:25:07;6.90;99.90
5962;DHT22;3007;50.770;0.250;2023-04-24T05:27:34;7.20;99.90
5962;DHT22;3007;50.770;0.250;2023-04-24T05:30:01;7.60;99.90
5962;DHT22;3007;50.770;0.250;2023-04-24T05:32:28;7.80;99.90
5962;DHT22;3007;50.770;0.250;2023-04-24T05:34:54;8.10;99.90
5962;DHT22;3007;50.770;0.250;2023-04-24T05:37:22;8.40;99.90
5962;DHT22;3007;50.770;0.250;2023-04-24T05:39:48;8.80;99.90
5962;DHT22;3007;50.770;0.250;2023-04-24T05:42:17;9.20;99.90
5962;DHT22;3007;50.770;0.250;2023-04-24T05:44:43;9.50;99.90
5962;DHT22;3007;50.770;0.250;2023-04-24T05:47:10;9.70;99.90
5962;DHT22;3007;50.770;0.250;2023-04-24T05:49:37;10.00;99.90
5962;DHT22;3007;50.770;0.250;2023-04-24T05:52:04;10.50;99.90
5962;DHT22;3007;50.770;0.250;2023-04-24T05:54:34;10.90;99.90
5962;DHT22;3007;50.770;0.250;2023-04-24T05:57:00;11.00;99.90
5962;DHT22;3007;50.770;0.250;2023-04-24T05:59:36;11.30;99.90
5962;DHT22;3007;50.770;0.250;2023-04-24T06:02:03;11.50;99.90
5962;DHT22;3007;50.770;0.250;2023-04-24T06:04:30;11.60;99.90
5962;DHT22;3007;50.770;0.250;2023-04-24T06:06:56;11.70;99.90
5962;DHT22;3007;50.770;0.250;2023-04-24T06:09:23;12.10;99.90
5962;DHT22;3007;50.770;0.250;2023-04-24T06:11:51;12.50;99.90
5962;DHT22;3007;50.770;0.250;2023-04-24T06:14:18;12.90;99.90
5962;DHT22;3007;50.770;0.250;2023-04-24T06:16:47;13.30;99.90
5962;DHT22;3007;50.770;0.250;2023-04-24T06:19:15;13.70;99.90
5962;DHT22;3007;50.770;0.250;2023-04-24T06:21:42;14.00;99.90
5962;DHT22;3007;50.770;0.250;2023-04-24T06:24:09;14.40;99.90
5962;DHT22;3007;50.770;0.250;2023-04-24T06:26:36;14.70;99.90
5962;DHT22;3007;50.770;0.250;2023-04-24T06:29:03;15.00;99.90
5962;DHT22;3007;50.770;0.250;2023-04-24T06:31:30;15.20;99.90
5962;DHT22;3007;50.770;0.250;2023-04-24T06:34:03;15.50;99.90
5962;DHT22;3007;50.770;0.250;2023-04-24T06:36:30;15.70;99.90
5962;DHT22;3007;50.770;0.250;2023-04-24T06:38:59;16.00;99.90
5962;DHT22;3007;50.770;0.250;2023-04-24T06:41:27;16.10;99.90
5962;DHT22;3007;50.770;0.250;2023-04-24T06:43:54;16.30;99.90
5962;DHT22;3007;50.770;0.250;2023-04-24T06:46:21;16.50;99.90
5962;DHT22;3007;50.770;0.250;2023-04-24T06:48:51;16.60;99.90
5962;DHT22;3007;50.770;0.250;2023-04-24T06:51:22;16.70;99.90
5962;DHT22;3007;50.770;0.250;2023-04-24T06:53:49;16.90;99.90
5962;DHT22;3007;50.770;0.250;2023-04-24T06:56:16;17.00;99.90
5962;DHT22;3007;50.770;0.250;2023-04-24T06:58:43;17.00;99.90
5962;DHT22;3007;50.770;0.250;2023-04-24T07:01:11;17.10;99.90
5962;DHT22;3007;50.770;0.250;2023-04-24T07:03:37;17.10;99.90
5962;DHT22;3007;50.770;0.250;2023-04-24T07:06:05;17.10;99.90
5962;DHT22;3007;50.770;0.250;2023-04-24T07:08:33;17.10;99.90
5962;DHT22;3007;50.770;0.250;2023-04-24T07:11:01;17.20;99.90
5962;DHT22;3007;50.770;0.250;2023-04-24T07:13:28;17.30;99.90
5962;DHT22;3007;50.770;0.250;2023-04-24T07:15:55;17.30;99.90
5962;DHT22;3007;50.770;0.250;2023-04-24T07:18:23;17.30;99.90
5962;DHT22;3007;50.770;0.250;2023-04-24T07:20:49;17.30;99.90
5962;DHT22;3007;50.770;0.250;2023-04-24T07:23:17;17.40;99.90
5962;DHT22;3007;50.770;0.250;2023-04-24T07:25:45;17.30;99.90
5962;DHT22;3007;50.770;0.250;2023-04-24T07:28:12;17.40;99.90
5962;DHT22;3007;50.770;0.250;2023-04-24T07:30:39;17.40;99.90
5962;DHT22;3007;50.770;0.250;2023-04-24T07:33:06;17.50;99.90
5962;DHT22;3007;50.770;0.250;2023-04-24T07:35:33;17.50;99.90
5962;DHT22;3007;50.770;0.250;2023-04-24T07:38:00;17.50;99.90
5962;DHT22;3007;50.770;0.250;2023-04-24T07:40:27;17.60;99.90
5962;DHT22;3007;50.770;0.250;2023-04-24T07:42:55;17.60;99.90
5962;DHT22;3007;50.770;0.250;2023-04-24T07:45:22;17.70;99.90
5962;DHT22;3007;50.770;0.250;2023-04-24T07:47:51;17.80;99.90
5962;DHT22;3007;50.770;0.250;2023-04-24T07:50:18;17.80;99.90
5962;DHT22;3007;50.770;0.250;2023-04-24T07:52:45;17.70;99.90
5962;DHT22;3007;50.770;0.250;2023-04-24T07:55:12;17.70;99.90
5962;DHT22;3007;50.770;0.250;2023-04-24T07:57:39;17.70;99.90
5962;DHT22;3007;50.770;0.250;2023-04-24T08:00:09;17.80;99.90
5962;DHT22;3007;50.770;0.250;2023-04-24T08:02:36;17.80;99.90
5962;DHT22;3007;50.770;0.250;2023-04-24T08:05:03;17.70;99.90
5962;DHT22;3007;50.770;0.250;2023-04-24T08:07:30;17.70;99.90
5962;DHT22;3007;50.770;0.250;2023-04-24T08:09:57;17.40;99.90
5962;DHT22;3007;50.770;0.250;2023-04-24T08:12:24;17.60;99.90
5962;DHT22;3007;50.770;0.250;2023-04-24T08:14:51;17.60;99.90
5962;DHT22;3007;50.770;0.250;2023-04-24T08:17:20;17.70;99.90
5962;DHT22;3007;50.770;0.250;2023-04-24T08:19:46;17.70;99.90
5962;DHT22;3007;50.770;0.250;2023-04-24T08:22:14;17.80;99.90
5962;DHT22;3007;50.770;0.250;2023-04-24T08:24:41;17.50;99.90
5962;DHT22;3007;50.770;0.250;2023-04-24T08:27:08;17.30;99.90
5962;DHT22;3007;50.770;0.250;2023-04-24T08:29:35;17.00;99.90
5962;DHT22;3007;50.770;0.250;2023-04-24T08:32:02;16.60;99.90
5962;DHT22;3007;50.770;0.250;2023-04-24T08:34:30;16.40;99.90
5962;DHT22;3007;50.770;0.250;2023-04-24T08:36:57;16.40;99.90
5962;DHT22;3007;50.770;0.250;2023-04-24T08:39:24;16.60;99.90
5962;DHT22;3007;50.770;0.250;2023-04-24T08:41:52;16.60;99.90
5962;DHT22;3007;50.770;0.250;2023-04-24T08:44:20;16.80;99.90
5962;DHT22;3007;50.770;0.250;2023-04-24T08:46:48;16.70;99.90
5962;DHT22;3007;50.770;0.250;2023-04-24T08:49:17;16.50;99.90
5962;DHT22;3007;50.770;0.250;2023-04-24T08:51:46;16.30;99.90
5962;DHT22;3007;50.770;0.250;2023-04-24T08:54:13;16.00;99.90
5962;DHT22;3007;50.770;0.250;2023-04-24T08:56:42;15.80;99.90
5962;DHT22;3007;50.770;0.250;2023-04-24T08:59:10;15.70;99.90
5962;DHT22;3007;50.770;0.250;2023-04-24T09:01:37;15.80;99.90
5962;DHT22;3007;50.770;0.250;2023-04-24T09:04:07;15.90;99.90
5962;DHT22;3007;50.770;0.250;2023-04-24T09:06:35;16.00;99.90
5962;DHT22;3007;50.770;0.250;2023-04-24T09:09:03;16.00;99.90
5962;DHT22;3007;50.770;0.250;2023-04-24T09:11:31;16.10;99.90
5962;DHT22;3007;50.770;0.250;2023-04-24T09:13:59;16.10;99.90
5962;DHT22;3007;50.770;0.250;2023-04-24T09:16:27;16.00;99.90
5962;DHT22;3007;50.770;0.250;2023-04-24T09:18:55;16.10;99.90
5962;DHT22;3007;50.770;0.250;2023-04-24T09:21:22;16.10;99.90
5962;DHT22;3007;50.770;0.250;2023-04-24T09:23:58;16.10;99.90
5962;DHT22;3007;50.770;0.250;2023-04-24T09:26:29;16.10;99.90
5962;DHT22;3007;50.770;0.250;2023-04-24T09:28:58;16.00;99.90
5962;DHT22;3007;50.770;0.250;2023-04-24T09:31:27;16.00;99.90
5962;DHT22;3007;50.770;0.250;2023-04-24T09:33:55;16.00;99.90
5962;DHT22;3007;50.770;0.250;2023-04-24T09:36:30;16.10;99.90
5962;DHT22;3007;50.770;0.250;2023-04-24T09:38:59;16.30;99.90
5962;DHT22;3007;50.770;0.250;2023-04-24T09:41:27;16.30;99.90
5962;DHT22;3007;50.770;0.250;2023-04-24T09:43:55;16.40;99.90
5962;DHT22;3007;50.770;0.250;2023-04-24T09:46:30;16.40;99.90
5962;DHT22;3007;50.770;0.250;2023-04-24T09:48:57;16.50;99.90
5962;DHT22;3007;50.770;0.250;2023-04-24T09:51:34;16.40;99.90
5962;DHT22;3007;50.770;0.250;2023-04-24T09:54:02;16.30;99.90
5962;DHT22;3007;50.770;0.250;2023-04-24T09:56:33;16.20;99.90
5962;DHT22;3007;50.770;0.250;2023-04-24T09:59:06;16.10;99.90
5962;DHT22;3007;50.770;0.250;2023-04-24T10:01:34;16.00;99.90
5962;DHT22;3007;50.770;0.250;2023-04-24T10:04:00;16.10;99.90
5962;DHT22;3007;50.770;0.250;2023-04-24T10:06:33;16.10;99.90
5962;DHT22;3007;50.770;0.250;2023-04-24T10:09:00;16.10;99.90
5962;DHT22;3007;50.770;0.250;2023-04-24T10:11:27;16.20;99.90
5962;DHT22;3007;50.770;0.250;2023-04-24T10:13:57;16.30;99.90
5962;DHT22;3007;50.770;0.250;2023-04-24T10:16:25;16.40;99.90
5962;DHT22;3007;50.770;0.250;2023-04-24T10:18:54;16.40;99.90
5962;DHT22;3007;50.770;0.250;2023-04-24T10:21:22;16.40;99.90
5962;DHT22;3007;50.770;0.250;2023-04-24T10:23:49;16.20;99.90
5962;DHT22;3007;50.770;0.250;2023-04-24T10:26:17;16.10;99.90
5962;DHT22;3007;50.770;0.250;2023-04-24T10:28:45;15.80;99.90
5962;DHT22;3007;50.770;0.250;2023-04-24T10:31:14;15.60;99.90
5962;DHT22;3007;50.770;0.250;2023-04-24T10:33:42;15.50;99.90
5962;DHT22;3007;50.770;0.250;2023-04-24T10:36:10;15.40;99.90
5962;DHT22;3007;50.770;0.250;2023-04-24T10:38:39;15.30;99.90
5962;DHT22;3007;50.770;0.250;2023-04-24T10:41:09;15.30;99.90
5962;DHT22;3007;50.770;0.250;2023-04-24T10:43:41;15.20;99.90
5962;DHT22;3007;50.770;0.250;2023-04-24T10:46:09;15.20;99.90
5962;DHT22;3007;50.770;0.250;2023-04-24T10:48:42;15.20;99.90
5962;DHT22;3007;50.770;0.250;2023-04-24T10:51:12;15.20;99.90
5962;DHT22;3007;50.770;0.250;2023-04-24T10:53:39;15.20;99.90
5962;DHT22;3007;50.770;0.250;2023-04-24T10:56:08;15.30;99.90
5962;DHT22;3007;50.770;0.250;2023-04-24T10:58:37;15.40;99.90
5962;DHT22;3007;50.770;0.250;2023-04-24T11:01:05;15.40;99.90
5962;DHT22;3007;50.770;0.250;2023-04-24T11:03:34;15.30;99.90
5962;DHT22;3007;50.770;0.250;2023-04-24T11:06:03;15.40;99.90
5962;DHT22;3007;50.770;0.250;2023-04-24T11:08:36;15.50;99.90
5962;DHT22;3007;50.770;0.250;2023-04-24T11:11:08;15.60;99.90
5962;DHT22;3007;50.770;0.250;2023-04-24T11:14:01;15.80;99.90
5962;DHT22;3007;50.770;0.250;2023-04-24T11:16:30;15.90;99.90
5962;DHT22;3007;50.770;0.250;2023-04-24T11:19:03;16.00;99.90
5962;DHT22;3007;50.770;0.250;2023-04-24T11:21:40;15.90;99.90
5962;DHT22;3007;50.770;0.250;2023-04-24T11:24:30;15.90;99.90
5962;DHT22;3007;50.770;0.250;2023-04-24T11:26:59;15.80;99.90
5962;DHT22;3007;50.770;0.250;2023-04-24T11:29:40;15.80;99.90
5962;DHT22;3007;50.770;0.250;2023-04-24T11:32:19;15.70;99.90
5962;DHT22;3007;50.770;0.250;2023-04-24T11:34:48;15.70;99.90
5962;DHT22;3007;50.770;0.250;2023-04-24T11:37:17;15.80;99.90
5962;DHT22;3007;50.770;0.250;2023-04-24T11:39:44;15.90;99.90
5962;DHT22;3007;50.770;0.250;2023-04-24T11:42:14;15.90;99.90
5962;DHT22;3007;50.770;0.250;2023-04-24T11:44:41;15.90;99.90
5962;DHT22;3007;50.770;0.250;2023-04-24T11:47:08;16.00;99.90
5962;DHT22;3007;50.770;0.250;2023-04-24T11:49:36;16.00;99.90
5962;DHT22;3007;50.770;0.250;2023-04-24T11:52:04;16.00;99.90
5962;DHT22;3007;50.770;0.250;2023-04-24T11:54:32;16.00;99.90
5962;DHT22;3007;50.770;0.250;2023-04-24T11:56:59;15.90;99.90
5962;DHT22;3007;50.770;0.250;2023-04-24T11:59:26;15.80;99.90
5962;DHT22;3007;50.770;0.250;2023-04-24T12:01:52;15.80;99.90
5962;DHT22;3007;50.770;0.250;2023-04-24T12:04:19;15.80;99.90
5962;DHT22;3007;50.770;0.250;2023-04-24T12:06:59;15.70;99.90
5962;DHT22;3007;50.770;0.250;2023-04-24T12:09:26;15.70;99.90
5962;DHT22;3007;50.770;0.250;2023-04-24T12:11:55;15.50;99.90
5962;DHT22;3007;50.770;0.250;2023-04-24T12:14:22;15.40;99.90
5962;DHT22;3007;50.770;0.250;2023-04-24T12:16:50;15.20;99.90
5962;DHT22;3007;50.770;0.250;2023-04-24T12:19:20;15.20;99.90
5962;DHT22;3007;50.770;0.250;2023-04-24T12:21:59;15.20;99.90
5962;DHT22;3007;50.770;0.250;2023-04-24T12:24:26;15.30;99.90
5962;DHT22;3007;50.770;0.250;2023-04-24T12:26:55;15.30;99.90
5962;DHT22;3007;50.770;0.250;2023-04-24T12:29:22;15.30;99.90
5962;DHT22;3007;50.770;0.250;2023-04-24T12:31:50;15.30;99.90
5962;DHT22;3007;50.770;0.250;2023-04-24T12:34:18;15.40;99.90
5962;DHT22;3007;50.770;0.250;2023-04-24T12:36:45;15.40;99.90
5962;DHT22;3007;50.770;0.250;2023-04-24T12:39:15;15.50;99.90
5962;DHT22;3007;50.770;0.250;2023-04-24T12:41:50;15.60;99.90
5962;DHT22;3007;50.770;0.250;2023-04-24T12:44:30;15.70;99.90
5962;DHT22;3007;50.770;0.250;2023-04-24T12:46:57;15.80;99.90
5962;DHT22;3007;50.770;0.250;2023-04-24T12:49:24;15.90;99.90
5962;DHT22;3007;50.770;0.250;2023-04-24T12:51:51;16.00;99.90
5962;DHT22;3007;50.770;0.250;2023-04-24T12:54:18;16.10;99.90
5962;DHT22;3007;50.770;0.250;2023-04-24T12:56:45;16.10;99.90
5962;DHT22;3007;50.770;0.250;2023-04-24T12:59:12;16.10;99.90
5962;DHT22;3007;50.770;0.250;2023-04-24T13:01:40;16.00;99.90
5962;DHT22;3007;50.770;0.250;2023-04-24T13:04:07;15.80;99.90
5962;DHT22;3007;50.770;0.250;2023-04-24T13:06:34;15.80;99.90
5962;DHT22;3007;50.770;0.250;2023-04-24T13:09:01;15.80;99.90
5962;DHT22;3007;50.770;0.250;2023-04-24T13:11:28;15.70;99.90
5962;DHT22;3007;50.770;0.250;2023-04-24T13:13:55;15.70;99.90
5962;DHT22;3007;50.770;0.250;2023-04-24T13:16:22;15.80;99.90
5962;DHT22;3007;50.770;0.250;2023-04-24T13:18:51;15.90;99.90
5962;DHT22;3007;50.770;0.250;2023-04-24T13:21:17;15.90;99.90
5962;DHT22;3007;50.770;0.250;2023-04-24T13:23:45;15.90;99.90
5962;DHT22;3007;50.770;0.250;2023-04-24T13:26:11;16.00;99.90
5962;DHT22;3007;50.770;0.250;2023-04-24T13:28:38;16.10;99.90
5962;DHT22;3007;50.770;0.250;2023-04-24T13:31:05;16.20;99.90
5962;DHT22;3007;50.770;0.250;2023-04-24T13:33:32;16.20;99.90
5962;DHT22;3007;50.770;0.250;2023-04-24T13:36:01;16.20;99.90
5962;DHT22;3007;50.770;0.250;2023-04-24T13:38:27;16.20;99.90
5962;DHT22;3007;50.770;0.250;2023-04-24T13:40:55;16.20;99.90
5962;DHT22;3007;50.770;0.250;2023-04-24T13:43:21;16.20;99.90
5962;DHT22;3007;50.770;0.250;2023-04-24T13:45:48;16.10;99.90
5962;DHT22;3007;50.770;0.250;2023-04-24T13:48:15;16.10;99.90
5962;DHT22;3007;50.770;0.250;2023-04-24T13:50:43;16.10;99.90
5962;DHT22;3007;50.770;0.250;2023-04-24T13:53:15;16.00;99.90
5962;DHT22;3007;50.770;0.250;2023-04-24T13:55:42;15.90;99.90
5962;DHT22;3007;50.770;0.250;2023-04-24T13:58:08;15.80;99.90
5962;DHT22;3007;50.770;0.250;2023-04-24T14:00:36;15.70;99.90
5962;DHT22;3007;50.770;0.250;2023-04-24T14:03:03;15.70;99.90
5962;DHT22;3007;50.770;0.250;2023-04-24T14:05:30;15.60;99.90
5962;DHT22;3007;50.770;0.250;2023-04-24T14:07:57;15.60;99.90
5962;DHT22;3007;50.770;0.250;2023-04-24T14:10:25;15.70;99.90
5962;DHT22;3007;50.770;0.250;2023-04-24T14:12:52;15.80;99.90
5962;DHT22;3007;50.770;0.250;2023-04-24T14:15:19;16.00;99.90
5962;DHT22;3007;50.770;0.250;2023-04-24T14:17:47;16.10;99.90
5962;DHT22;3007;50.770;0.250;2023-04-24T14:20:14;16.20;99.90
5962;DHT22;3007;50.770;0.250;2023-04-24T14:22:40;16.30;99.90
5962;DHT22;3007;50.770;0.250;2023-04-24T14:25:08;16.40;99.90
5962;DHT22;3007;50.770;0.250;2023-04-24T14:27:37;16.60;99.90
5962;DHT22;3007;50.770;0.250;2023-04-24T14:30:05;16.60;99.90
5962;DHT22;3007;50.770;0.250;2023-04-24T14:32:32;16.60;99.90
5962;DHT22;3007;50.770;0.250;2023-04-24T14:34:59;16.60;99.90
5962;DHT22;3007;50.770;0.250;2023-04-24T14:37:26;16.50;99.90
5962;DHT22;3007;50.770;0.250;2023-04-24T14:39:53;16.50;99.90
5962;DHT22;3007;50.770;0.250;2023-04-24T14:42:19;16.40;99.90
5962;DHT22;3007;50.770;0.250;2023-04-24T14:44:48;16.40;99.90
5962;DHT22;3007;50.770;0.250;2023-04-24T14:47:15;16.30;99.90
5962;DHT22;3007;50.770;0.250;2023-04-24T14:49:43;16.30;99.90
5962;DHT22;3007;50.770;0.250;2023-04-24T14:52:10;16.10;99.90
5962;DHT22;3007;50.770;0.250;2023-04-24T14:54:37;16.10;99.90
5962;DHT22;3007;50.770;0.250;2023-04-24T14:57:04;16.00;99.90
5962;DHT22;3007;50.770;0.250;2023-04-24T14:59:31;16.00;99.90
5962;DHT22;3007;50.770;0.250;2023-04-24T15:01:59;16.10;99.90
5962;DHT22;3007;50.770;0.250;2023-04-24T15:04:27;16.00;99.90
5962;DHT22;3007;50.770;0.250;2023-04-24T15:06:55;15.70;99.90
5962;DHT22;3007;50.770;0.250;2023-04-24T15:09:22;15.60;99.90
5962;DHT22;3007;50.770;0.250;2023-04-24T15:11:49;15.40;99.90
5962;DHT22;3007;50.770;0.250;2023-04-24T15:14:17;15.20;99.90
5962;DHT22;3007;50.770;0.250;2023-04-24T15:16:44;15.00;99.90
5962;DHT22;3007;50.770;0.250;2023-04-24T15:19:12;14.80;99.90
5962;DHT22;3007;50.770;0.250;2023-04-24T15:21:39;14.70;99.90
5962;DHT22;3007;50.770;0.250;2023-04-24T15:24:07;14.60;99.90
5962;DHT22;3007;50.770;0.250;2023-04-24T15:26:34;14.60;99.90
5962;DHT22;3007;50.770;0.250;2023-04-24T15:29:01;14.50;99.90
5962;DHT22;3007;50.770;0.250;2023-04-24T15:31:28;14.50;99.90
5962;DHT22;3007;50.770;0.250;2023-04-24T15:33:55;14.50;99.90
5962;DHT22;3007;50.770;0.250;2023-04-24T15:36:24;14.60;99.90
5962;DHT22;3007;50.770;0.250;2023-04-24T15:38:50;14.60;99.90
5962;DHT22;3007;50.770;0.250;2023-04-24T15:41:17;14.70;99.90
5962;DHT22;3007;50.770;0.250;2023-04-24T15:43:44;14.90;99.90
5962;DHT22;3007;50.770;0.250;2023-04-24T15:46:11;14.90;99.90
5962;DHT22;3007;50.770;0.250;2023-04-24T15:48:38;15.00;99.90
5962;DHT22;3007;50.770;0.250;2023-04-24T15:51:06;15.10;99.90
5962;DHT22;3007;50.770;0.250;2023-04-24T15:53:34;15.20;99.90
5962;DHT22;3007;50.770;0.250;2023-04-24T15:56:01;15.20;99.90
5962;DHT22;3007;50.770;0.250;2023-04-24T15:58:28;15.20;99.90
5962;DHT22;3007;50.770;0.250;2023-04-24T16:00:55;15.10;99.90
5962;DHT22;3007;50.770;0.250;2023-04-24T16:03:23;15.00;99.90
5962;DHT22;3007;50.770;0.250;2023-04-24T16:05:50;14.90;99.90
5962;DHT22;3007;50.770;0.250;2023-04-24T16:08:17;14.90;99.90
5962;DHT22;3007;50.770;0.250;2023-04-24T16:10:45;14.90;99.90